Time;durP1;ratioP1;P1;durP2;ratioP2;P2;SDS_P1;SDS_P2;PMS_P1;PMS_P2;Temp;Humidity;BMP_temperature;BMP_pressure;BME280_temperature;BME280_humidity;BME280_pressure;Samples;Min_cycle;Max_cycle;Signal;HPM_P1;HPM_P2
2022/01/04 00:02:22;;;;;;;18.52;11.43;;;;;;;;;;5058618;28;20033;-75
2022/01/04 00:04:51;;;;;;;19.77;10.95;;;;;;;;;;5071621;28;20553;-75
2022/01/04 00:07:19;;;;;;;17.83;11.73;;;;;;;;;;5074470;28;20052;-79
2022/01/04 00:09:46;;;;;;;18.10;10.73;;;;;;;;;;5075265;28;20443;-78
2022/01/04 00:15:02;;;;;;;20.60;10.98;;;;;;;;;;5074968;28;20143;-77
2022/01/04 00:17:29;;;;;;;21.15;11.93;;;;;;;;;;5075951;28;20047;-74
2022/01/04 00:19:57;;;;;;;19.27;12.10;;;;;;;;;;5057355;28;20056;-77
2022/01/04 00:22:24;;;;;;;20.42;10.93;;;;;;;;;;5058276;28;20032;-77
2022/01/04 00:24:53;;;;;;;22.98;11.88;;;;;;;;;;5076336;28;20036;-77
2022/01/04 00:27:21;;;;;;;22.27;11.95;;;;;;;;;;5074571;28;20044;-77
2022/01/04 00:29:49;;;;;;;18.95;11.77;;;;;;;;;;5076051;28;20051;-75
2022/01/04 00:32:17;;;;;;;16.70;11.18;;;;;;;;;;5076318;28;20040;-79
2022/01/04 00:34:45;;;;;;;18.30;10.98;;;;;;;;;;5076169;28;20044;-78
2022/01/04 00:37:14;;;;;;;21.45;12.27;;;;;;;;;;5058219;28;20040;-76
2022/01/04 00:39:42;;;;;;;26.08;12.13;;;;;;;;;;5074555;28;20102;-76
2022/01/04 00:42:10;;;;;;;20.23;12.02;;;;;;;;;;5083615;28;20040;-79
2022/01/04 00:44:39;;;;;;;24.25;12.35;;;;;;;;;;5074857;28;20040;-78
2022/01/04 00:47:09;;;;;;;22.35;12.32;;;;;;;;;;5082657;28;20024;-80
2022/01/04 00:49:37;;;;;;;24.98;12.77;;;;;;;;;;5089592;28;20045;-80
2022/01/04 00:52:05;;;;;;;23.55;12.63;;;;;;;;;;5075231;28;20051;-76
2022/01/04 00:54:34;;;;;;;24.05;12.20;;;;;;;;;;5075727;28;20041;-79
2022/01/04 00:57:01;;;;;;;23.63;12.25;;;;;;;;;;5074920;28;20040;-79
2022/01/04 00:59:29;;;;;;;23.40;12.68;;;;;;;;;;5077554;28;20041;-79
2022/01/04 01:01:58;;;;;;;22.67;12.48;;;;;;;;;;5081990;28;20082;-78
2022/01/04 01:04:26;;;;;;;23.00;12.23;;;;;;;;;;5085813;28;20083;-79
2022/01/04 01:06:54;;;;;;;20.30;12.27;;;;;;;;;;5085325;28;20048;-77
2022/01/04 01:09:25;;;;;;;23.50;12.80;;;;;;;;;;5084660;28;20044;-79
2022/01/04 01:11:53;;;;;;;24.15;12.65;;;;;;;;;;5074775;28;20418;-78
2022/01/04 01:14:20;;;;;;;23.40;12.65;;;;;;;;;;5058327;28;20066;-79
2022/01/04 01:16:48;;;;;;;26.77;12.60;;;;;;;;;;5091614;28;20067;-79
2022/01/04 01:19:16;;;;;;;23.27;12.95;;;;;;;;;;5074471;28;20420;-79
2022/01/04 01:21:43;;;;;;;20.75;13.32;;;;;;;;;;5088184;28;20050;-79
2022/01/04 01:24:12;;;;;;;22.70;12.93;;;;;;;;;;5090038;28;20125;-76
2022/01/04 01:26:41;;;;;;;22.58;13.90;;;;;;;;;;5074823;28;20145;-76
2022/01/04 01:29:10;;;;;;;20.27;12.55;;;;;;;;;;5064360;28;20044;-76
2022/01/04 01:31:37;;;;;;;20.92;12.15;;;;;;;;;;5073426;28;20072;-79
2022/01/04 01:34:05;;;;;;;19.98;12.38;;;;;;;;;;5081446;28;20044;-76
2022/01/04 01:36:33;;;;;;;21.42;12.20;;;;;;;;;;5062696;28;20040;-79
2022/01/04 01:39:00;;;;;;;19.63;12.20;;;;;;;;;;5074655;28;20045;-79
2022/01/04 01:41:29;;;;;;;21.30;12.13;;;;;;;;;;5073465;28;20135;-79
2022/01/04 01:43:56;;;;;;;22.10;12.27;;;;;;;;;;5046394;28;20036;-79
2022/01/04 01:46:24;;;;;;;22.92;13.02;;;;;;;;;;5056833;28;20100;-79
2022/01/04 01:48:52;;;;;;;24.58;12.55;;;;;;;;;;5077834;28;20051;-79
2022/01/04 01:51:20;;;;;;;18.25;11.77;;;;;;;;;;5056795;28;20044;-78
2022/01/04 01:53:47;;;;;;;20.92;12.27;;;;;;;;;;5073003;28;20135;-79
2022/01/04 01:56:16;;;;;;;21.77;11.15;;;;;;;;;;5079248;28;20051;-77
2022/01/04 01:58:44;;;;;;;18.80;11.88;;;;;;;;;;5056722;28;20052;-76
2022/01/04 02:01:11;;;;;;;19.58;11.65;;;;;;;;;;5081995;28;20071;-76
2022/01/04 02:03:40;;;;;;;20.58;11.23;;;;;;;;;;5077456;28;20496;-79
2022/01/04 02:06:08;;;;;;;20.02;11.43;;;;;;;;;;5061435;28;20045;-79
2022/01/04 02:08:39;;;;;;;19.35;11.65;;;;;;;;;;5074025;28;20120;-79
2022/01/04 02:11:08;;;;;;;18.38;11.70;;;;;;;;;;5072761;28;20533;-76
2022/01/04 02:13:36;;;;;;;15.90;11.13;;;;;;;;;;5068029;28;20410;-79
2022/01/04 02:16:08;;;;;;;19.35;10.60;;;;;;;;;;5069463;28;20140;-79
2022/01/04 02:18:36;;;;;;;20.75;10.85;;;;;;;;;;5056735;28;20041;-79
2022/01/04 02:21:05;;;;;;;17.90;11.15;;;;;;;;;;5079656;28;20028;-79
2022/01/04 02:23:33;;;;;;;18.73;11.10;;;;;;;;;;5061700;28;20048;-79
2022/01/04 02:26:03;;;;;;;20.42;11.52;;;;;;;;;;5079358;28;20059;-76
2022/01/04 02:28:32;;;;;;;17.33;10.48;;;;;;;;;;5076703;28;20198;-78
2022/01/04 02:31:00;;;;;;;18.63;11.52;;;;;;;;;;5058101;28;20041;-78
2022/01/04 02:33:28;;;;;;;22.33;11.30;;;;;;;;;;5073417;28;20040;-76
2022/01/04 02:35:56;;;;;;;17.25;11.45;;;;;;;;;;5078690;28;20040;-79
2022/01/04 02:38:23;;;;;;;17.65;10.52;;;;;;;;;;5080780;28;20055;-79
2022/01/04 02:40:51;;;;;;;18.20;11.07;;;;;;;;;;5071895;28;20513;-78
2022/01/04 02:43:20;;;;;;;17.85;11.10;;;;;;;;;;5072161;28;20060;-76
2022/01/04 02:45:48;;;;;;;21.00;12.10;;;;;;;;;;5071997;28;20040;-79
2022/01/04 02:48:16;;;;;;;15.85;11.18;;;;;;;;;;5055952;28;20044;-79
2022/01/04 02:50:43;;;;;;;19.05;11.02;;;;;;;;;;5064479;28;20047;-76
2022/01/04 02:53:12;;;;;;;18.38;11.48;;;;;;;;;;5084858;28;20051;-79
2022/01/04 02:55:40;;;;;;;20.17;11.63;;;;;;;;;;5071818;28;20055;-76
2022/01/04 02:58:11;;;;;;;17.75;11.40;;;;;;;;;;5073564;28;20459;-78
2022/01/04 03:00:39;;;;;;;22.05;11.98;;;;;;;;;;5072208;28;20455;-76
2022/01/04 03:03:07;;;;;;;17.30;11.38;;;;;;;;;;5072010;28;20043;-79
2022/01/04 03:05:34;;;;;;;21.27;12.15;;;;;;;;;;5055408;28;20040;-79
2022/01/04 03:08:02;;;;;;;19.58;11.90;;;;;;;;;;5078890;28;20037;-76
2022/01/04 03:10:30;;;;;;;24.67;12.10;;;;;;;;;;5076762;28;20430;-76
2022/01/04 03:12:58;;;;;;;22.65;13.20;;;;;;;;;;5060450;28;20049;-79
2022/01/04 03:15:26;;;;;;;20.92;12.70;;;;;;;;;;5074539;28;20424;-79
2022/01/04 03:17:53;;;;;;;20.90;12.10;;;;;;;;;;5059963;28;20044;-78
2022/01/04 03:20:21;;;;;;;19.50;12.00;;;;;;;;;;5079865;28;20044;-76
2022/01/04 03:26:25;;;;;;;24.92;13.57;;;;;;;;;;5074353;28;20087;-78
2022/01/04 03:28:55;;;;;;;25.80;13.80;;;;;;;;;;5076346;28;20048;-79
2022/01/04 03:31:23;;;;;;;21.55;12.48;;;;;;;;;;5080685;28;20032;-79
2022/01/04 03:33:51;;;;;;;21.45;12.05;;;;;;;;;;5076686;28;20047;-79
2022/01/04 03:36:23;;;;;;;19.90;12.32;;;;;;;;;;5083523;28;20045;-79
2022/01/04 03:38:52;;;;;;;21.58;12.18;;;;;;;;;;5077335;28;20072;-76
2022/01/04 03:41:22;;;;;;;22.10;12.40;;;;;;;;;;5064784;28;20040;-78
2022/01/04 03:43:53;;;;;;;20.13;11.52;;;;;;;;;;5074962;28;20435;-76
2022/01/04 03:46:21;;;;;;;22.80;12.45;;;;;;;;;;5075814;28;20051;-76
2022/01/04 03:48:49;;;;;;;18.30;12.00;;;;;;;;;;5082281;28;20391;-76
2022/01/04 03:51:17;;;;;;;23.08;12.30;;;;;;;;;;5059016;28;20049;-79
2022/01/04 03:53:45;;;;;;;23.55;12.00;;;;;;;;;;5077967;28;20041;-79
2022/01/04 03:56:13;;;;;;;19.95;12.00;;;;;;;;;;5082937;28;20104;-77
2022/01/04 03:58:43;;;;;;;21.98;13.48;;;;;;;;;;5076939;28;20048;-78
2022/01/04 04:01:13;;;;;;;21.67;12.80;;;;;;;;;;5080284;28;20055;-79
2022/01/04 04:03:41;;;;;;;23.63;14.38;;;;;;;;;;5081899;28;20119;-78
2022/01/04 04:06:09;;;;;;;25.90;13.75;;;;;;;;;;5076453;28;20036;-79
2022/01/04 04:08:37;;;;;;;28.52;14.10;;;;;;;;;;5058551;28;20051;-79
2022/01/04 04:11:04;;;;;;;25.55;14.40;;;;;;;;;;5058502;28;20043;-78
2022/01/04 04:13:32;;;;;;;26.23;14.38;;;;;;;;;;5075627;28;20116;-79
2022/01/04 04:16:00;;;;;;;25.90;14.15;;;;;;;;;;5076290;28;20430;-79
2022/01/04 04:18:28;;;;;;;23.20;14.02;;;;;;;;;;5081827;28;20492;-78
2022/01/04 04:20:55;;;;;;;24.02;13.50;;;;;;;;;;5081805;28;20119;-79
2022/01/04 04:23:24;;;;;;;27.90;15.30;;;;;;;;;;5081328;28;20128;-79
2022/01/04 04:25:51;;;;;;;23.10;14.40;;;;;;;;;;5076318;28;20051;-79
2022/01/04 04:28:19;;;;;;;27.25;15.45;;;;;;;;;;5076264;28;20503;-79
2022/01/04 04:30:49;;;;;;;24.88;14.43;;;;;;;;;;5076943;28;20399;-76
2022/01/04 04:33:16;;;;;;;27.85;14.85;;;;;;;;;;5074722;28;20044;-78
2022/01/04 04:35:44;;;;;;;27.40;15.68;;;;;;;;;;5079294;28;20495;-79
2022/01/04 04:38:12;;;;;;;31.85;15.85;;;;;;;;;;5066463;28;20060;-79
2022/01/04 04:40:39;;;;;;;28.52;15.38;;;;;;;;;;5057846;28;20144;-76
2022/01/04 04:43:10;;;;;;;27.25;16.15;;;;;;;;;;5074468;28;20048;-76
2022/01/04 04:45:39;;;;;;;30.92;16.08;;;;;;;;;;5060355;28;20037;-79
2022/01/04 04:48:06;;;;;;;31.33;16.02;;;;;;;;;;5077102;28;20040;-79
2022/01/04 04:50:37;;;;;;;26.48;15.07;;;;;;;;;;5074497;28;20054;-76
2022/01/04 04:53:05;;;;;;;28.45;15.45;;;;;;;;;;5074570;28;20076;-76
2022/01/04 04:55:33;;;;;;;29.50;15.57;;;;;;;;;;5084284;28;20048;-79
2022/01/04 04:58:01;;;;;;;29.98;16.02;;;;;;;;;;5077511;28;20449;-79
2022/01/04 05:00:31;;;;;;;31.83;16.38;;;;;;;;;;5074529;28;20404;-76
2022/01/04 05:02:59;;;;;;;32.10;16.75;;;;;;;;;;5056896;28;20080;-80
2022/01/04 05:05:27;;;;;;;33.33;16.35;;;;;;;;;;5076008;28;20044;-79
2022/01/04 05:07:54;;;;;;;26.80;14.85;;;;;;;;;;5074614;28;20058;-79
2022/01/04 05:10:24;;;;;;;33.83;17.00;;;;;;;;;;5056683;28;20083;-78
2022/01/04 05:12:52;;;;;;;34.58;16.85;;;;;;;;;;5074203;28;20079;-78
2022/01/04 05:15:20;;;;;;;32.22;16.45;;;;;;;;;;5076593;28;20044;-76
2022/01/04 05:17:48;;;;;;;32.60;16.25;;;;;;;;;;5074190;28;20132;-76
2022/01/04 05:20:17;;;;;;;30.67;15.93;;;;;;;;;;5075956;28;20037;-76
2022/01/04 05:22:47;;;;;;;30.45;16.02;;;;;;;;;;5075730;28;20037;-76
2022/01/04 05:25:15;;;;;;;29.83;16.27;;;;;;;;;;5057921;28;20191;-79
2022/01/04 05:27:42;;;;;;;28.42;15.90;;;;;;;;;;5073960;28;20048;-79
2022/01/04 05:30:10;;;;;;;26.40;15.48;;;;;;;;;;5077157;28;20177;-79
2022/01/04 05:32:37;;;;;;;30.05;15.77;;;;;;;;;;5073272;28;20515;-79
2022/01/04 05:35:06;;;;;;;30.92;15.43;;;;;;;;;;5076333;28;20507;-79
2022/01/04 05:37:34;;;;;;;31.00;16.38;;;;;;;;;;5075851;28;20040;-78
2022/01/04 05:40:01;;;;;;;33.72;17.10;;;;;;;;;;5073421;28;20078;-80
2022/01/04 05:42:28;;;;;;;28.13;16.40;;;;;;;;;;5075237;28;20040;-78
2022/01/04 05:44:56;;;;;;;27.23;15.13;;;;;;;;;;5072283;28;20131;-76
2022/01/04 05:47:24;;;;;;;28.70;16.20;;;;;;;;;;5057058;28;20036;-76
2022/01/04 05:53:52;;;;;;;29.23;16.40;;;;;;;;;;5074823;28;20473;-79
2022/01/04 05:56:23;;;;;;;33.15;16.00;;;;;;;;;;5075498;28;20037;-76
2022/01/04 05:58:51;;;;;;;28.17;16.40;;;;;;;;;;5074779;28;20096;-79
2022/01/04 06:01:18;;;;;;;35.20;17.58;;;;;;;;;;5054069;28;20033;-79
2022/01/04 06:03:50;;;;;;;33.55;16.90;;;;;;;;;;5055788;28;20045;-78
2022/01/04 06:06:18;;;;;;;27.30;15.95;;;;;;;;;;5054541;28;20037;-78
2022/01/04 06:08:47;;;;;;;27.23;15.93;;;;;;;;;;5054060;28;20379;-76
2022/01/04 06:11:31;;;;;;;29.00;16.50;;;;;;;;;;5054776;28;20044;-76
2022/01/04 06:16:47;;;;;;;34.95;18.02;;;;;;;;;;5070499;28;20108;-79
2022/01/04 06:19:16;;;;;;;38.05;18.00;;;;;;;;;;5051545;28;20416;-79
2022/01/04 06:21:43;;;;;;;35.85;18.23;;;;;;;;;;5048564;28;20384;-79
2022/01/04 06:24:11;;;;;;;36.03;18.63;;;;;;;;;;5053733;28;20045;-77
2022/01/04 06:26:39;;;;;;;32.65;18.95;;;;;;;;;;5052496;28;20077;-77
2022/01/04 06:29:08;;;;;;;36.70;18.98;;;;;;;;;;5052488;28;20037;-75
2022/01/04 06:31:35;;;;;;;34.70;19.42;;;;;;;;;;5053514;28;20041;-75
2022/01/04 06:34:06;;;;;;;34.80;19.20;;;;;;;;;;5053474;28;20072;-79
2022/01/04 06:36:35;;;;;;;37.63;19.20;;;;;;;;;;5053912;28;20124;-78
2022/01/04 06:39:03;;;;;;;35.33;18.60;;;;;;;;;;5054076;28;20515;-77
2022/01/04 06:41:31;;;;;;;34.38;17.88;;;;;;;;;;5063189;28;20041;-77
2022/01/04 06:43:59;;;;;;;31.35;17.90;;;;;;;;;;5072956;28;20044;-75
2022/01/04 06:46:27;;;;;;;28.60;16.27;;;;;;;;;;5073595;28;20033;-75
2022/01/04 06:48:58;;;;;;;28.30;16.08;;;;;;;;;;5073409;28;20120;-79
2022/01/04 06:51:26;;;;;;;26.15;15.38;;;;;;;;;;5073339;28;20045;-75
2022/01/04 06:53:54;;;;;;;24.55;15.13;;;;;;;;;;5073667;28;20045;-75
2022/01/04 06:56:24;;;;;;;24.73;15.18;;;;;;;;;;5073306;28;20047;-75
2022/01/04 06:58:55;;;;;;;25.00;14.40;;;;;;;;;;5072439;28;20495;-78
2022/01/04 07:01:23;;;;;;;25.58;14.10;;;;;;;;;;5055243;28;20501;-77
2022/01/04 07:03:51;;;;;;;25.02;14.82;;;;;;;;;;5073260;28;20036;-75
2022/01/04 07:06:19;;;;;;;29.63;13.80;;;;;;;;;;5072261;28;20553;-77
2022/01/04 07:08:49;;;;;;;20.48;12.90;;;;;;;;;;5070312;28;20048;-79
2022/01/04 07:11:17;;;;;;;20.75;13.38;;;;;;;;;;5073008;28;20065;-78
2022/01/04 07:13:45;;;;;;;20.55;13.55;;;;;;;;;;5073482;28;20048;-79
2022/01/04 07:16:14;;;;;;;18.58;11.73;;;;;;;;;;5072992;28;20055;-76
2022/01/04 07:18:46;;;;;;;74.30;16.23;;;;;;;;;;5071636;28;20052;-78
2022/01/04 07:21:20;;;;;;;19.67;11.40;;;;;;;;;;5071192;28;20049;-79
2022/01/04 07:23:51;;;;;;;21.20;12.95;;;;;;;;;;5072816;28;20047;-78
2022/01/04 07:26:18;;;;;;;18.70;12.90;;;;;;;;;;5072916;28;20593;-78
2022/01/04 07:28:46;;;;;;;21.65;11.80;;;;;;;;;;5073084;28;20036;-77
2022/01/04 07:31:15;;;;;;;18.70;11.48;;;;;;;;;;5071707;28;20496;-78
2022/01/04 07:33:45;;;;;;;17.38;11.77;;;;;;;;;;5071288;28;20064;-76
2022/01/04 07:36:15;;;;;;;16.92;11.07;;;;;;;;;;5070165;28;20051;-79
2022/01/04 07:38:44;;;;;;;17.05;12.00;;;;;;;;;;5072320;28;20113;-78
2022/01/04 07:41:11;;;;;;;18.73;12.63;;;;;;;;;;5071426;28;20049;-79
2022/01/04 07:43:39;;;;;;;23.30;14.57;;;;;;;;;;5072506;28;20049;-76
2022/01/04 07:46:07;;;;;;;21.33;14.90;;;;;;;;;;5062060;28;20037;-78
2022/01/04 07:48:35;;;;;;;25.13;16.38;;;;;;;;;;5055781;28;20488;-79
2022/01/04 07:51:09;;;;;;;23.02;13.50;;;;;;;;;;5060382;28;20053;-78
2022/01/04 07:53:36;;;;;;;25.25;14.68;;;;;;;;;;5066181;28;20396;-78
2022/01/04 07:56:04;;;;;;;21.15;14.07;;;;;;;;;;5062042;28;20553;-79
2022/01/04 07:58:32;;;;;;;21.88;15.20;;;;;;;;;;5058976;28;20036;-76
2022/01/04 08:01:00;;;;;;;22.10;14.88;;;;;;;;;;5045262;28;20037;-79
2022/01/04 08:03:30;;;;;;;20.15;14.90;;;;;;;;;;5063743;28;20114;-79
2022/01/04 08:06:06;;;;;;;22.98;16.00;;;;;;;;;;5052890;28;20045;-78
2022/01/04 08:08:34;;;;;;;22.00;15.57;;;;;;;;;;5051252;28;20033;-77
2022/01/04 08:11:04;;;;;;;19.10;13.52;;;;;;;;;;5052024;28;20037;-77
2022/01/04 08:13:33;;;;;;;21.23;13.85;;;;;;;;;;5051029;28;20045;-77
2022/01/04 08:16:02;;;;;;;22.08;13.90;;;;;;;;;;5052512;28;20071;-79
2022/01/04 08:18:32;;;;;;;18.25;13.02;;;;;;;;;;5052061;28;20037;-77
2022/01/04 08:21:24;;;;;;;18.30;12.82;;;;;;;;;;5052942;28;20133;-77
2022/01/04 08:23:55;;;;;;;18.27;11.90;;;;;;;;;;5056494;28;20123;-79
2022/01/04 08:26:26;;;;;;;19.50;13.20;;;;;;;;;;5056138;28;20052;-79
2022/01/04 08:28:54;;;;;;;21.92;13.95;;;;;;;;;;5056858;28;20044;-79
2022/01/04 08:31:21;;;;;;;21.05;13.30;;;;;;;;;;5055613;28;20033;-78
2022/01/04 08:33:52;;;;;;;21.48;12.95;;;;;;;;;;5060976;28;20056;-76
2022/01/04 08:36:20;;;;;;;20.02;11.05;;;;;;;;;;5060898;28;20047;-73
2022/01/04 08:38:48;;;;;;;20.80;14.25;;;;;;;;;;5066285;28;20043;-75
2022/01/04 08:41:16;;;;;;;18.52;12.90;;;;;;;;;;5074915;28;20040;-82
2022/01/04 08:43:44;;;;;;;19.02;12.32;;;;;;;;;;5061297;28;20431;-78
2022/01/04 08:46:14;;;;;;;20.17;12.07;;;;;;;;;;5058488;28;20047;-77
2022/01/04 08:48:42;;;;;;;15.23;9.73;;;;;;;;;;5053469;28;20412;-79
2022/01/04 08:51:11;;;;;;;18.25;10.40;;;;;;;;;;5066460;28;20542;-76
2022/01/04 08:53:39;;;;;;;17.95;10.77;;;;;;;;;;5059803;28;20512;-82
2022/01/04 08:56:07;;;;;;;18.33;10.52;;;;;;;;;;5063861;28;20041;-79
2022/01/04 08:58:35;;;;;;;13.77;9.40;;;;;;;;;;5056904;28;20036;-79
2022/01/04 09:01:03;;;;;;;14.00;10.15;;;;;;;;;;5072609;28;20412;-80
2022/01/04 09:03:30;;;;;;;15.38;9.77;;;;;;;;;;5065679;28;20126;-79
2022/01/04 09:05:58;;;;;;;18.83;10.70;;;;;;;;;;5068598;28;20028;-79
2022/01/04 09:08:27;;;;;;;18.88;11.32;;;;;;;;;;5061092;28;20033;-76
2022/01/04 09:10:55;;;;;;;17.20;10.70;;;;;;;;;;5061986;28;20116;-79
2022/01/04 09:13:25;;;;;;;14.50;9.65;;;;;;;;;;5048096;28;20036;-77
2022/01/04 09:18:43;;;;;;;15.25;10.18;;;;;;;;;;5058760;28;20075;-80
2022/01/04 09:18:43;;;;;;;12.80;9.48;;;;;;;;;;5059476;28;20047;-81
2022/01/04 09:21:24;;;;;;;10.85;8.60;;;;;;;;;;5043855;28;20048;-79
2022/01/04 09:23:53;;;;;;;14.60;9.23;;;;;;;;;;5062646;28;20446;-81
2022/01/04 09:26:22;;;;;;;16.30;9.15;;;;;;;;;;5061879;28;20459;-81
2022/01/04 09:28:50;;;;;;;13.32;8.85;;;;;;;;;;5067635;28;20036;-78
2022/01/04 09:31:20;;;;;;;13.27;8.80;;;;;;;;;;5061233;28;20045;-79
2022/01/04 09:33:49;;;;;;;12.45;8.95;;;;;;;;;;5060528;28;20041;-83
2022/01/04 09:36:28;;;;;;;12.65;9.07;;;;;;;;;;5057695;28;20481;-79
2022/01/04 09:38:56;;;;;;;12.73;8.45;;;;;;;;;;5063646;28;20032;-78
2022/01/04 09:41:23;;;;;;;12.60;7.82;;;;;;;;;;5045496;28;20449;-78
2022/01/04 09:43:51;;;;;;;12.82;8.35;;;;;;;;;;5064015;28;20144;-81
2022/01/04 09:46:19;;;;;;;13.55;8.38;;;;;;;;;;5061115;28;19943;-79
2022/01/04 09:48:47;;;;;;;12.95;8.35;;;;;;;;;;5053463;28;20090;-80
2022/01/04 09:51:16;;;;;;;10.07;7.25;;;;;;;;;;5061519;28;20124;-81
2022/01/04 09:53:43;;;;;;;10.98;6.50;;;;;;;;;;5063370;28;20041;-80
2022/01/04 09:56:12;;;;;;;10.98;6.93;;;;;;;;;;5066300;28;20033;-81
2022/01/04 09:58:41;;;;;;;14.40;7.60;;;;;;;;;;5059043;28;20086;-83
2022/01/04 10:01:29;;;;;;;10.70;6.97;;;;;;;;;;5062916;28;20408;-81
2022/01/04 10:04:17;;;;;;;12.95;7.50;;;;;;;;;;5059351;28;20052;-83
2022/01/04 10:07:17;;;;;;;12.95;7.90;;;;;;;;;;5062777;28;20041;-84
2022/01/04 10:09:46;;;;;;;10.77;6.78;;;;;;;;;;5024274;28;20033;-81
2022/01/04 10:12:15;;;;;;;9.80;6.15;;;;;;;;;;5064894;28;20132;-79
2022/01/04 10:14:47;;;;;;;10.10;5.90;;;;;;;;;;5058818;28;20063;-79
2022/01/04 10:17:23;;;;;;;9.20;5.85;;;;;;;;;;5060553;28;20045;-83
2022/01/04 10:19:55;;;;;;;9.65;6.10;;;;;;;;;;5044644;28;20128;-83
2022/01/04 10:22:23;;;;;;;9.20;6.77;;;;;;;;;;5055831;28;20084;-79
2022/01/04 10:27:56;;;;;;;12.23;7.20;;;;;;;;;;4913458;29;20087;-74
2022/01/04 10:30:32;;;;;;;12.98;7.50;;;;;;;;;;4915686;29;20076;-75
2022/01/04 10:33:00;;;;;;;12.70;6.85;;;;;;;;;;4898209;29;20104;-75
2022/01/04 10:35:37;;;;;;;11.43;6.80;;;;;;;;;;4913251;29;20055;-75
2022/01/04 10:38:10;;;;;;;10.88;7.50;;;;;;;;;;4916804;29;20127;-74
2022/01/04 10:40:41;;;;;;;10.38;6.65;;;;;;;;;;4917219;29;20044;-78
2022/01/04 10:43:14;;;;;;;11.18;7.47;;;;;;;;;;4917102;29;20051;-75
2022/01/04 10:45:42;;;;;;;9.23;8.07;;;;;;;;;;4898714;29;20068;-74
2022/01/04 10:48:15;;;;;;;13.60;7.57;;;;;;;;;;4906791;29;20040;-77
2022/01/04 10:50:44;;;;;;;12.35;8.38;;;;;;;;;;4915511;29;20140;-77
2022/01/04 10:53:19;;;;;;;11.73;8.00;;;;;;;;;;4914769;29;20040;-74
2022/01/04 10:55:47;;;;;;;10.52;8.30;;;;;;;;;;4914530;29;20423;-74
2022/01/04 10:58:19;;;;;;;10.23;7.13;;;;;;;;;;4916402;29;20519;-75
2022/01/04 11:00:49;;;;;;;11.73;8.18;;;;;;;;;;4916271;29;20091;-75
2022/01/04 11:03:25;;;;;;;10.77;7.40;;;;;;;;;;4917212;29;20469;-78
2022/01/04 11:05:57;;;;;;;14.73;8.07;;;;;;;;;;4916937;29;20075;-78
2022/01/04 11:08:26;;;;;;;10.45;7.53;;;;;;;;;;4916317;29;20074;-76
2022/01/04 11:10:55;;;;;;;11.50;6.95;;;;;;;;;;4915089;29;20382;-77
2022/01/04 11:13:23;;;;;;;10.93;7.40;;;;;;;;;;4916731;29;20050;-76
2022/01/04 11:15:54;;;;;;;8.57;6.00;;;;;;;;;;4916001;29;20051;-75
2022/01/04 11:18:22;;;;;;;9.43;6.53;;;;;;;;;;4912529;29;20048;-74
2022/01/04 11:21:01;;;;;;;6.82;5.97;;;;;;;;;;4913364;29;20103;-75
2022/01/04 11:23:33;;;;;;;16.63;10.02;;;;;;;;;;4913845;29;20111;-78
2022/01/04 11:26:02;;;;;;;17.70;12.60;;;;;;;;;;4910028;29;20056;-77
2022/01/04 11:28:33;;;;;;;18.70;12.02;;;;;;;;;;4905343;29;20100;-75
2022/01/04 11:31:19;;;;;;;18.73;12.18;;;;;;;;;;4904307;29;20040;-76
2022/01/04 11:34:10;;;;;;;17.90;12.25;;;;;;;;;;4915837;29;20050;-76
2022/01/04 11:36:41;;;;;;;16.80;10.95;;;;;;;;;;4897365;29;20135;-75
2022/01/04 11:39:27;;;;;;;19.38;11.60;;;;;;;;;;4916172;29;20048;-76
2022/01/04 11:41:56;;;;;;;20.75;11.77;;;;;;;;;;4916060;29;20087;-78
2022/01/04 11:44:25;;;;;;;19.92;11.43;;;;;;;;;;4916150;29;20063;-78
2022/01/04 11:47:02;;;;;;;15.75;10.68;;;;;;;;;;4915586;29;20036;-75
2022/01/04 11:49:30;;;;;;;15.05;10.90;;;;;;;;;;4905383;29;20048;-75
2022/01/04 11:51:57;;;;;;;18.25;12.18;;;;;;;;;;4913639;29;20472;-75
2022/01/04 11:54:27;;;;;;;17.13;11.25;;;;;;;;;;4913780;29;20041;-74
2022/01/04 11:56:55;;;;;;;18.83;11.65;;;;;;;;;;4885793;29;20127;-75
2022/01/04 11:59:27;;;;;;;19.25;11.40;;;;;;;;;;4918737;29;20043;-78
2022/01/04 12:01:55;;;;;;;22.50;11.40;;;;;;;;;;4919724;29;20115;-75
2022/01/04 12:04:47;;;;;;;18.40;11.32;;;;;;;;;;4916966;29;20095;-76
2022/01/04 12:07:34;;;;;;;14.63;10.57;;;;;;;;;;4905996;29;20119;-76
2022/01/04 12:10:20;;;;;;;18.88;12.32;;;;;;;;;;4908786;29;20064;-76
2022/01/04 12:13:14;;;;;;;18.02;10.98;;;;;;;;;;4918293;29;20042;-75
2022/01/04 12:15:45;;;;;;;19.92;10.77;;;;;;;;;;4909425;29;20056;-76
2022/01/04 12:18:25;;;;;;;16.73;9.90;;;;;;;;;;4895737;29;20506;-76
2022/01/04 12:20:57;;;;;;;15.95;9.52;;;;;;;;;;4909342;29;20040;-76
2022/01/04 12:23:31;;;;;;;21.20;12.13;;;;;;;;;;4912229;29;20127;-73
2022/01/04 12:26:11;;;;;;;16.17;11.05;;;;;;;;;;4903985;29;20052;-74
2022/01/04 12:28:40;;;;;;;20.65;11.07;;;;;;;;;;4913193;29;20052;-73
2022/01/04 12:31:15;;;;;;;17.40;10.88;;;;;;;;;;4902222;29;20029;-77
2022/01/04 12:33:45;;;;;;;15.77;10.60;;;;;;;;;;4904094;29;20040;-73
2022/01/04 12:36:36;;;;;;;14.50;10.43;;;;;;;;;;4909835;29;20199;-73
2022/01/04 12:39:13;;;;;;;14.43;10.55;;;;;;;;;;4914386;29;20052;-79
2022/01/04 12:41:42;;;;;;;14.82;10.30;;;;;;;;;;4911150;29;20048;-78
2022/01/04 12:44:12;;;;;;;18.13;10.45;;;;;;;;;;4911466;29;20412;-76
2022/01/04 12:46:41;;;;;;;16.88;10.77;;;;;;;;;;4907144;29;20047;-77
2022/01/04 12:49:13;;;;;;;18.67;10.77;;;;;;;;;;4908867;29;20044;-78
2022/01/04 12:51:44;;;;;;;13.15;9.68;;;;;;;;;;4906912;29;20131;-75
2022/01/04 12:54:15;;;;;;;15.63;9.95;;;;;;;;;;4899915;29;20131;-75
2022/01/04 12:56:53;;;;;;;16.00;10.13;;;;;;;;;;4910487;29;20056;-78
2022/01/04 12:59:27;;;;;;;12.90;9.70;;;;;;;;;;4909855;29;20139;-75
2022/01/04 13:01:57;;;;;;;17.88;9.90;;;;;;;;;;4900940;29;20515;-77
2022/01/04 13:04:36;;;;;;;16.15;10.00;;;;;;;;;;4918295;29;20044;-75
2022/01/04 13:07:06;;;;;;;17.05;10.15;;;;;;;;;;4913247;29;20044;-76
2022/01/04 13:09:36;;;;;;;14.55;9.88;;;;;;;;;;4897233;29;20449;-76
2022/01/04 13:12:04;;;;;;;16.60;10.70;;;;;;;;;;4905840;29;20063;-74
2022/01/04 13:14:33;;;;;;;19.90;11.18;;;;;;;;;;4913329;29;20056;-70
2022/01/04 13:17:02;;;;;;;14.95;10.73;;;;;;;;;;4908898;29;20408;-70
2022/01/04 13:19:29;;;;;;;15.80;10.95;;;;;;;;;;4904085;29;20061;-76
2022/01/04 13:22:04;;;;;;;15.10;10.23;;;;;;;;;;4898902;29;20044;-71
2022/01/04 13:24:36;;;;;;;18.95;11.68;;;;;;;;;;4916961;29;20044;-71
2022/01/04 13:27:21;;;;;;;15.57;11.20;;;;;;;;;;4917584;29;20136;-70
2022/01/04 13:29:57;;;;;;;15.73;10.93;;;;;;;;;;4917884;29;20100;-76
2022/01/04 13:32:33;;;;;;;19.35;11.43;;;;;;;;;;4917615;29;20104;-74
2022/01/04 13:35:08;;;;;;;17.60;11.25;;;;;;;;;;4917745;29;20087;-75
2022/01/04 13:37:35;;;;;;;17.00;10.02;;;;;;;;;;4917516;29;20131;-77
2022/01/04 13:40:07;;;;;;;18.58;10.82;;;;;;;;;;4917557;29;20043;-70
2022/01/04 13:42:43;;;;;;;12.63;9.88;;;;;;;;;;4917542;29;20044;-72
2022/01/04 13:45:19;;;;;;;15.40;9.77;;;;;;;;;;4917292;29;20111;-75
2022/01/04 13:47:51;;;;;;;17.05;10.00;;;;;;;;;;4916528;29;20085;-72
2022/01/04 13:50:43;;;;;;;17.13;10.48;;;;;;;;;;4913893;29;20150;-77
2022/01/04 13:53:16;;;;;;;16.45;10.00;;;;;;;;;;4916394;29;20379;-77
2022/01/04 13:55:46;;;;;;;17.70;10.43;;;;;;;;;;4915673;29;20036;-71
2022/01/04 13:58:54;;;;;;;14.75;9.40;;;;;;;;;;4916824;29;20048;-78
2022/01/04 14:01:41;;;;;;;17.30;10.45;;;;;;;;;;4877715;29;20118;-76
2022/01/04 14:04:23;;;;;;;15.68;10.80;;;;;;;;;;4877765;29;20065;-76
2022/01/04 14:06:57;;;;;;;18.90;10.30;;;;;;;;;;4877347;29;20072;-71
2022/01/04 14:09:32;;;;;;;22.25;11.82;;;;;;;;;;4877307;29;20080;-71
2022/01/04 14:12:01;;;;;;;13.43;9.80;;;;;;;;;;4874880;29;20053;-73
2022/01/04 14:14:33;;;;;;;20.45;10.57;;;;;;;;;;4877470;29;20045;-72
2022/01/04 14:17:03;;;;;;;18.13;10.13;;;;;;;;;;4874801;29;20491;-71
2022/01/04 14:19:32;;;;;;;17.80;10.45;;;;;;;;;;4876501;29;20073;-71
2022/01/04 14:22:04;;;;;;;19.88;10.63;;;;;;;;;;4874226;29;20056;-71
2022/01/04 14:24:36;;;;;;;28.25;11.88;;;;;;;;;;4877180;29;20052;-72
2022/01/04 14:27:06;;;;;;;21.23;10.65;;;;;;;;;;4876518;29;20139;-76
2022/01/04 14:29:35;;;;;;;15.93;9.27;;;;;;;;;;4877531;29;20057;-71
2022/01/04 14:32:20;;;;;;;17.75;10.15;;;;;;;;;;4874924;29;20049;-72
2022/01/04 14:34:48;;;;;;;14.65;9.90;;;;;;;;;;4886863;29;20115;-72
2022/01/04 14:37:16;;;;;;;15.13;10.77;;;;;;;;;;4899887;29;20059;-76
2022/01/04 14:39:46;;;;;;;15.38;9.98;;;;;;;;;;4916930;29;20052;-75
2022/01/04 14:42:15;;;;;;;16.92;11.02;;;;;;;;;;4917041;29;20128;-77
2022/01/04 14:44:42;;;;;;;16.40;10.98;;;;;;;;;;4917155;29;20052;-76
2022/01/04 14:47:10;;;;;;;16.30;10.85;;;;;;;;;;4916377;29;20127;-72
2022/01/04 14:49:41;;;;;;;15.52;10.55;;;;;;;;;;4916771;29;20415;-72
2022/01/04 14:52:11;;;;;;;19.83;10.57;;;;;;;;;;4916853;29;20052;-73
2022/01/04 14:54:42;;;;;;;17.13;10.27;;;;;;;;;;4916873;29;20559;-73